Time;durP1;ratioP1;P1;durP2;ratioP2;P2;SDS_P1;SDS_P2;PMS_P1;PMS_P2;Temp;Humidity;BMP_temperature;BMP_pressure;BME280_temperature;BME280_humidity;BME280_pressure;Samples;Min_cycle;Max_cycle;Signal;HPM_P1;HPM_P2
2023/04/25 00:02:22;;;;;;;15.30;6.32;;;;;;;14.82;33.22;99609.44;5076118;28;20068;-58
2023/04/25 00:04:51;;;;;;;15.52;5.97;;;;;;;14.85;33.47;99610.00;5093462;28;20035;-62
2023/04/25 00:07:17;;;;;;;13.75;6.20;;;;;;;14.74;33.55;99586.84;5094290;28;20364;-60
2023/04/25 00:09:43;;;;;;;17.80;6.43;;;;;;;14.87;33.43;99604.44;5093733;28;20035;-60
2023/04/25 00:12:08;;;;;;;11.85;5.82;;;;;;;14.90;33.48;99610.38;5093374;28;20039;-61
2023/04/25 00:14:35;;;;;;;18.88;6.28;;;;;;;14.91;33.47;99613.88;5093247;28;20428;-59
2023/04/25 00:17:01;;;;;;;16.70;5.70;;;;;;;14.89;33.45;99605.97;5093818;28;20047;-59
2023/04/25 00:19:28;;;;;;;10.30;5.75;;;;;;;14.82;33.52;99587.88;5093842;28;20110;-61
2023/04/25 00:21:55;;;;;;;12.15;6.60;;;;;;;14.98;33.73;99609.56;5075910;28;20095;-63
2023/04/25 00:24:21;;;;;;;19.50;6.38;;;;;;;14.83;33.54;99584.19;5055114;28;20505;-61
2023/04/25 00:26:46;;;;;;;15.68;6.03;;;;;;;14.89;33.48;99588.94;5073267;28;20036;-61
2023/04/25 00:29:12;;;;;;;11.63;6.25;;;;;;;14.82;33.58;99586.03;5087719;28;20032;-60
2023/04/25 00:31:37;;;;;;;14.70;6.57;;;;;;;15.04;33.82;99635.03;5093689;28;20036;-61
2023/04/25 00:34:03;;;;;;;14.07;6.35;;;;;;;14.99;34.22;99619.34;5093200;28;20097;-58
2023/04/25 00:36:28;;;;;;;12.65;6.70;;;;;;;14.99;34.23;99615.81;5075141;28;20036;-59
2023/04/25 00:38:54;;;;;;;13.90;6.45;;;;;;;14.85;34.46;99587.56;5092988;28;20020;-60
2023/04/25 00:41:20;;;;;;;17.35;5.90;;;;;;;14.97;34.44;99615.97;5093167;28;20123;-57
2023/04/25 00:43:48;;;;;;;12.38;5.55;;;;;;;15.02;34.28;99616.34;5093399;28;20093;-59
2023/04/25 00:46:13;;;;;;;12.52;6.15;;;;;;;15.03;34.33;99611.78;5093146;28;20132;-59
2023/04/25 00:48:39;;;;;;;11.18;5.72;;;;;;;15.05;34.41;99616.03;5092900;28;20418;-60
2023/04/25 00:51:04;;;;;;;9.93;6.03;;;;;;;15.10;33.28;99620.09;5093165;28;20024;-59
2023/04/25 00:53:31;;;;;;;14.10;5.13;;;;;;;15.25;33.38;99599.63;5092883;28;20032;-60
2023/04/25 00:55:58;;;;;;;7.95;4.30;;;;;;;15.55;30.35;99591.16;5092923;28;20095;-60
2023/04/25 00:58:23;;;;;;;12.68;4.93;;;;;;;15.43;33.12;99585.19;5074845;28;20421;-60
2023/04/25 01:00:51;;;;;;;9.93;4.63;;;;;;;15.42;32.96;99594.31;5092917;28;20107;-63
2023/04/25 01:03:19;;;;;;;8.60;4.60;;;;;;;15.36;32.67;99585.84;5093107;28;20024;-61
2023/04/25 01:05:45;;;;;;;11.00;5.70;;;;;;;15.40;34.02;99599.00;5092865;28;20046;-62
2023/04/25 01:08:10;;;;;;;13.82;6.03;;;;;;;15.30;34.85;99607.22;5074881;28;20032;-60
2023/04/25 01:10:36;;;;;;;9.55;5.30;;;;;;;15.10;35.40;99609.31;5075141;28;20027;-60
2023/04/25 01:13:03;;;;;;;15.00;6.50;;;;;;;14.89;36.84;99600.59;5092853;28;20044;-60
2023/04/25 01:15:28;;;;;;;14.57;6.18;;;;;;;14.83;37.08;99613.84;5092573;28;20036;-59
2023/04/25 01:17:55;;;;;;;10.77;6.35;;;;;;;14.76;37.23;99611.78;5092388;28;20115;-60
2023/04/25 01:20:24;;;;;;;13.50;6.90;;;;;;;14.75;37.14;99615.47;5092591;28;20450;-59
2023/04/25 01:22:53;;;;;;;11.35;6.35;;;;;;;14.68;37.56;99614.34;5092791;28;20028;-62
2023/04/25 01:25:20;;;;;;;18.15;7.22;;;;;;;14.50;37.99;99612.53;5091365;28;20145;-61
2023/04/25 01:27:46;;;;;;;14.63;6.38;;;;;;;14.42;38.35;99609.75;5092554;28;20036;-60
2023/04/25 01:30:12;;;;;;;15.00;7.35;;;;;;;14.39;38.20;99601.16;5092504;28;20327;-58
2023/04/25 01:32:38;;;;;;;16.27;6.75;;;;;;;14.36;38.26;99599.59;5092952;28;20412;-60
2023/04/25 01:35:09;;;;;;;14.75;6.68;;;;;;;14.40;38.33;99600.16;5092538;28;20028;-61
2023/04/25 01:37:36;;;;;;;14.95;7.22;;;;;;;14.35;38.97;99587.13;5074910;28;20119;-60
2023/04/25 01:40:05;;;;;;;14.63;7.13;;;;;;;14.35;38.72;99589.84;5092152;28;20047;-62
2023/04/25 01:42:32;;;;;;;14.43;6.70;;;;;;;14.36;39.52;99586.13;5092442;28;20115;-60
2023/04/25 01:44:57;;;;;;;11.82;6.30;;;;;;;14.37;39.40;99584.31;5092348;28;20043;-62
2023/04/25 01:47:23;;;;;;;19.27;7.10;;;;;;;14.40;39.20;99590.22;5092564;28;20342;-60
2023/04/25 01:49:48;;;;;;;17.77;6.95;;;;;;;14.38;39.45;99578.75;5092241;28;20063;-60
2023/04/25 01:52:14;;;;;;;14.32;6.47;;;;;;;14.42;39.57;99593.59;5091530;28;20024;-63
2023/04/25 01:54:43;;;;;;;15.13;6.90;;;;;;;14.41;39.30;99586.50;5072646;28;20336;-59
2023/04/25 01:57:10;;;;;;;13.18;6.72;;;;;;;14.43;39.15;99589.91;5072508;28;20067;-60
2023/04/25 01:59:36;;;;;;;15.13;6.88;;;;;;;14.47;38.92;99588.59;5091130;28;20032;-62
2023/04/25 02:02:03;;;;;;;11.07;6.40;;;;;;;14.47;38.99;99588.59;5091076;28;20032;-59
2023/04/25 02:04:32;;;;;;;13.98;6.75;;;;;;;14.39;38.90;99566.97;5092111;28;20469;-56
2023/04/25 02:06:58;;;;;;;12.77;6.47;;;;;;;14.48;38.86;99584.91;5092040;28;20058;-59
2023/04/25 02:09:23;;;;;;;14.68;6.53;;;;;;;14.52;38.34;99577.34;5092173;28;20439;-60
2023/04/25 02:11:49;;;;;;;11.10;6.55;;;;;;;14.53;38.52;99584.44;5092459;28;20031;-61
2023/04/25 02:14:14;;;;;;;11.73;6.95;;;;;;;14.55;38.53;99578.91;5072986;28;20020;-61
2023/04/25 02:16:40;;;;;;;14.63;6.40;;;;;;;14.58;38.26;99574.03;5092149;28;20095;-60
2023/04/25 02:19:06;;;;;;;12.07;6.40;;;;;;;14.60;38.37;99563.97;5092139;28;20370;-60
2023/04/25 02:21:32;;;;;;;19.50;6.78;;;;;;;14.65;38.26;99571.56;5092243;28;20028;-57
2023/04/25 02:23:57;;;;;;;17.33;6.25;;;;;;;14.71;37.94;99559.34;5091913;28;20040;-59
2023/04/25 02:26:26;;;;;;;15.43;7.15;;;;;;;14.78;38.25;99566.66;5053910;28;20028;-59
2023/04/25 02:28:52;;;;;;;14.25;6.93;;;;;;;14.85;37.95;99576.78;5071942;28;20119;-59
2023/04/25 02:31:17;;;;;;;14.55;6.53;;;;;;;14.91;37.47;99570.75;5072106;28;20515;-58
2023/04/25 02:33:43;;;;;;;10.05;5.80;;;;;;;14.97;37.72;99570.16;5071861;28;20093;-60
2023/04/25 02:36:08;;;;;;;20.00;6.70;;;;;;;15.01;37.46;99566.13;5089855;28;20122;-60
2023/04/25 02:38:34;;;;;;;9.15;6.20;;;;;;;15.07;37.87;99565.47;5095516;28;20115;-60
2023/04/25 02:41:00;;;;;;;17.50;6.47;;;;;;;14.92;37.59;99534.72;5095353;28;20052;-61
2023/04/25 02:43:25;;;;;;;12.88;6.25;;;;;;;15.04;37.05;99548.75;5095376;28;20040;-60
2023/04/25 02:45:51;;;;;;;13.43;5.55;;;;;;;15.21;36.95;99561.34;5077791;28;20115;-61
2023/04/25 02:48:17;;;;;;;18.10;6.53;;;;;;;15.27;37.00;99575.19;5095781;28;20028;-62
2023/04/25 02:50:42;;;;;;;15.00;6.53;;;;;;;15.33;37.32;99563.78;5095202;28;20040;-61
2023/04/25 02:53:08;;;;;;;13.07;6.88;;;;;;;15.39;37.34;99568.50;5095417;28;20035;-60
2023/04/25 02:55:33;;;;;;;11.50;6.03;;;;;;;15.46;36.55;99566.03;5095179;28;20052;-60
2023/04/25 02:57:59;;;;;;;12.57;6.05;;;;;;;15.50;36.48;99556.59;5095123;28;20024;-60
2023/04/25 03:00:24;;;;;;;12.63;6.05;;;;;;;15.58;36.37;99564.69;5095121;28;20024;-59
2023/04/25 03:02:50;;;;;;;10.18;5.80;;;;;;;15.60;36.13;99565.38;5095209;28;20039;-62
2023/04/25 03:05:17;;;;;;;13.45;6.13;;;;;;;15.69;36.22;99574.34;5095345;28;20043;-61
2023/04/25 03:07:43;;;;;;;13.57;6.03;;;;;;;15.74;36.20;99568.47;5095144;28;20044;-59
2023/04/25 03:10:09;;;;;;;12.98;5.78;;;;;;;15.76;36.27;99563.75;5095163;28;20038;-62
2023/04/25 03:12:34;;;;;;;13.52;6.43;;;;;;;15.76;36.75;99561.88;5094557;28;20032;-60
2023/04/25 03:15:00;;;;;;;13.57;6.15;;;;;;;15.74;37.05;99566.59;5094874;28;20024;-61
2023/04/25 03:17:26;;;;;;;15.23;6.60;;;;;;;15.73;37.29;99564.91;5077046;28;20051;-61
2023/04/25 03:19:51;;;;;;;12.88;6.57;;;;;;;15.80;37.38;99575.91;5094853;28;20059;-59
2023/04/25 03:22:17;;;;;;;11.25;6.18;;;;;;;15.85;37.24;99573.56;5095038;28;20040;-61
2023/04/25 03:24:43;;;;;;;16.90;6.38;;;;;;;15.95;36.14;99580.72;5076606;28;20035;-62
2023/04/25 03:27:08;;;;;;;19.35;6.20;;;;;;;16.10;35.62;99579.03;5094703;28;20181;-61
2023/04/25 03:29:34;;;;;;;14.75;6.03;;;;;;;16.25;35.36;99578.41;5094558;28;20472;-61
2023/04/25 03:31:59;;;;;;;12.02;5.68;;;;;;;16.40;34.97;99579.44;5094502;28;20055;-61
2023/04/25 03:34:25;;;;;;;13.32;6.03;;;;;;;16.64;34.16;99586.69;5094557;28;20453;-61
2023/04/25 03:36:51;;;;;;;19.00;6.68;;;;;;;16.84;33.92;99583.63;5094331;28;20093;-62
2023/04/25 03:39:17;;;;;;;14.82;6.22;;;;;;;17.18;33.16;99589.88;5094807;28;20040;-62
2023/04/25 03:41:42;;;;;;;16.08;6.68;;;;;;;17.63;32.75;99577.53;5094164;28;20093;-61
2023/04/25 03:44:08;;;;;;;13.82;7.22;;;;;;;18.33;31.67;99579.53;5076550;28;20079;-62
2023/04/25 03:46:33;;;;;;;15.30;6.60;;;;;;;19.21;30.23;99579.09;5094253;28;20111;-61
2023/04/25 03:48:59;;;;;;;12.07;7.32;;;;;;;20.16;28.50;99576.53;5093188;28;20028;-61
2023/04/25 03:51:25;;;;;;;16.98;7.18;;;;;;;21.03;27.14;99583.81;5094005;28;20036;-61
2023/04/25 03:53:52;;;;;;;19.92;7.57;;;;;;;21.82;26.10;99576.31;5094198;28;20067;-63
2023/04/25 03:56:17;;;;;;;15.18;7.93;;;;;;;22.58;25.07;99577.13;5094157;28;20032;-62
2023/04/25 03:58:43;;;;;;;14.98;7.75;;;;;;;23.26;24.02;99572.47;5094100;28;20511;-61
2023/04/25 04:01:09;;;;;;;19.20;8.23;;;;;;;23.83;23.49;99569.13;5093258;28;20051;-61
2023/04/25 04:03:35;;;;;;;23.77;8.13;;;;;;;24.47;22.59;99555.50;5093732;28;20024;-61
2023/04/25 04:06:03;;;;;;;19.30;9.38;;;;;;;24.91;22.10;99576.66;5093957;28;20032;-61
2023/04/25 04:08:29;;;;;;;18.50;8.77;;;;;;;25.17;21.84;99575.53;5075987;28;20412;-62
2023/04/25 04:10:56;;;;;;;20.95;10.00;;;;;;;25.39;21.34;99575.09;5093430;28;20032;-64
2023/04/25 04:13:22;;;;;;;23.88;9.40;;;;;;;25.30;21.83;99549.91;5089653;28;20028;-61
2023/04/25 04:15:47;;;;;;;21.88;9.48;;;;;;;25.83;21.10;99564.09;5092407;28;20420;-60
2023/04/25 04:18:13;;;;;;;18.58;10.45;;;;;;;26.47;20.41;99563.59;5092230;28;20019;-61
2023/04/25 04:20:38;;;;;;;22.88;9.55;;;;;;;27.33;19.83;99572.47;5092218;28;20507;-62
2023/04/25 04:23:05;;;;;;;21.25;10.13;;;;;;;27.92;18.77;99574.28;5074434;28;20020;-62
2023/04/25 04:25:30;;;;;;;15.18;9.95;;;;;;;28.58;18.20;99570.25;5074190;28;20065;-62
2023/04/25 04:27:57;;;;;;;15.65;9.38;;;;;;;29.12;17.76;99557.88;5091983;28;20052;-61
2023/04/25 04:30:24;;;;;;;18.85;9.35;;;;;;;29.51;17.54;99571.69;5089295;28;20434;-61
2023/04/25 04:32:51;;;;;;;21.70;10.27;;;;;;;30.20;16.75;99580.50;5092753;28;20161;-62
2023/04/25 04:35:16;;;;;;;19.05;10.20;;;;;;;30.64;16.25;99574.84;5091854;28;20443;-62
2023/04/25 04:37:43;;;;;;;21.67;10.18;;;;;;;30.92;15.78;99550.75;5091663;28;20039;-62
2023/04/25 04:40:09;;;;;;;13.90;9.55;;;;;;;30.98;16.29;99573.72;5091811;28;20044;-62
2023/04/25 04:42:36;;;;;;;21.52;9.95;;;;;;;31.31;15.91;99557.09;5074340;28;20028;-61
2023/04/25 04:45:03;;;;;;;18.30;9.57;;;;;;;31.59;15.68;99586.28;5074313;28;20023;-62
2023/04/25 04:47:31;;;;;;;16.48;9.80;;;;;;;31.78;15.46;99585.81;5091700;28;20069;-62
2023/04/25 04:49:57;;;;;;;21.05;10.10;;;;;;;31.69;15.36;99579.91;5091285;28;20024;-62
2023/04/25 04:52:22;;;;;;;22.92;9.30;;;;;;;31.98;15.17;99573.13;5089091;28;20043;-62
2023/04/25 04:54:48;;;;;;;21.00;9.60;;;;;;;31.49;15.45;99572.38;5091687;28;20028;-62
2023/04/25 04:57:13;;;;;;;17.73;9.40;;;;;;;31.56;15.54;99574.91;5091604;28;20028;-61
2023/04/25 04:59:39;;;;;;;19.02;10.02;;;;;;;32.17;14.63;99563.22;5073669;28;20031;-65
2023/04/25 05:02:05;;;;;;;22.42;9.23;;;;;;;32.53;14.70;99550.50;5091510;28;20024;-61
2023/04/25 05:04:30;;;;;;;16.90;9.25;;;;;;;32.99;14.46;99547.72;5092345;28;20032;-62
2023/04/25 05:06:56;;;;;;;12.85;8.43;;;;;;;33.76;13.38;99566.06;5075133;28;20091;-62
2023/04/25 05:09:25;;;;;;;11.73;7.82;;;;;;;34.34;12.83;99574.91;5092686;28;20088;-63
2023/04/25 05:11:51;;;;;;;19.10;8.80;;;;;;;34.76;12.56;99562.38;5092566;28;20514;-60
2023/04/25 05:14:17;;;;;;;16.27;8.13;;;;;;;35.44;12.19;99570.00;5093019;28;20038;-62
2023/04/25 05:16:43;;;;;;;16.83;8.15;;;;;;;36.27;11.42;99569.75;5091504;28;20024;-62
2023/04/25 05:19:09;;;;;;;17.67;8.38;;;;;;;36.51;11.28;99549.31;5091789;28;20042;-63
2023/04/25 05:21:35;;;;;;;19.55;8.30;;;;;;;37.12;11.02;99557.75;5074575;28;20092;-62
2023/04/25 05:24:01;;;;;;;15.30;7.75;;;;;;;37.79;10.08;99563.13;5091888;28;20382;-64
2023/04/25 05:26:30;;;;;;;20.33;7.93;;;;;;;37.82;10.25;99556.91;5092356;28;20119;-63
2023/04/25 05:28:57;;;;;;;14.10;7.65;;;;;;;38.42;9.62;99555.78;5072913;28;20047;-60
2023/04/25 05:31:22;;;;;;;17.17;7.45;;;;;;;38.90;9.49;99571.09;5092655;28;20443;-62
2023/04/25 05:33:48;;;;;;;13.30;8.05;;;;;;;39.23;9.33;99555.94;5092350;28;20035;-61
2023/04/25 05:36:13;;;;;;;14.23;6.88;;;;;;;39.86;8.79;99566.19;5092307;28;20039;-62
2023/04/25 05:38:39;;;;;;;16.63;7.18;;;;;;;40.26;8.52;99568.00;5091453;28;20446;-60
2023/04/25 05:41:04;;;;;;;14.23;7.45;;;;;;;40.77;8.29;99539.44;5090878;28;20036;-61
2023/04/25 05:43:30;;;;;;;12.70;7.25;;;;;;;40.93;8.16;99551.75;5091594;28;20028;-62
2023/04/25 05:45:56;;;;;;;14.35;6.60;;;;;;;39.09;8.92;99560.84;5074984;28;20028;-63
2023/04/25 05:48:21;;;;;;;13.93;5.93;;;;;;;36.52;10.23;99558.53;5074857;28;20032;-61
2023/04/25 05:50:47;;;;;;;14.00;6.45;;;;;;;34.74;11.73;99524.84;5092085;28;20028;-61
2023/04/25 05:53:12;;;;;;;10.63;6.65;;;;;;;35.23;11.56;99541.59;5092354;28;20036;-62
2023/04/25 05:55:38;;;;;;;17.40;7.65;;;;;;;36.87;10.45;99543.13;5092374;28;20032;-62
2023/04/25 05:58:06;;;;;;;12.40;6.93;;;;;;;38.62;9.54;99537.69;5074477;28;20029;-61
2023/04/25 06:00:31;;;;;;;12.35;7.38;;;;;;;39.65;9.05;99549.16;5089430;28;20550;-61
2023/04/25 06:02:59;;;;;;;14.68;8.02;;;;;;;40.71;8.30;99550.00;5060148;28;20041;-59
2023/04/25 06:05:25;;;;;;;17.60;7.82;;;;;;;41.17;8.26;99550.38;5071669;28;20044;-63
2023/04/25 06:07:51;;;;;;;13.98;7.05;;;;;;;41.35;7.71;99541.84;5072022;28;20025;-61
2023/04/25 06:10:16;;;;;;;17.33;7.18;;;;;;;41.42;7.50;99536.50;5038642;28;20033;-61
2023/04/25 06:12:42;;;;;;;18.73;6.70;;;;;;;41.72;7.22;99474.69;5094699;28;20116;-60
2023/04/25 06:15:08;;;;;;;12.63;6.53;;;;;;;42.87;7.04;99534.34;5096245;28;20068;-60
2023/04/25 06:17:33;;;;;;;15.07;7.20;;;;;;;42.98;6.79;99536.69;5096249;28;20137;-61
2023/04/25 06:19:59;;;;;;;11.68;6.72;;;;;;;43.47;6.22;99521.81;5095595;28;20040;-61
2023/04/25 06:22:24;;;;;;;9.85;5.82;;;;;;;44.21;6.24;99491.78;5096137;28;20110;-61
2023/04/25 06:24:50;;;;;;;15.60;6.22;;;;;;;45.34;5.65;99509.59;5095778;28;20035;-61
2023/04/25 06:27:15;;;;;;;10.35;5.70;;;;;;;46.25;5.28;99521.69;5095462;28;20028;-62
2023/04/25 06:29:41;;;;;;;10.57;5.28;;;;;;;46.11;4.69;99502.44;5095680;28;20488;-62
2023/04/25 06:32:07;;;;;;;11.38;5.80;;;;;;;46.08;4.88;99510.81;5095639;28;20031;-60
2023/04/25 06:34:32;;;;;;;6.72;4.78;;;;;;;46.32;4.72;99497.53;5077151;28;20440;-61
2023/04/25 06:36:58;;;;;;;8.65;4.82;;;;;;;46.25;4.73;99476.41;5095430;28;20416;-61
2023/04/25 06:39:24;;;;;;;8.80;5.10;;;;;;;46.51;4.60;99508.03;5095411;28;20059;-61
2023/04/25 06:41:50;;;;;;;7.63;4.32;;;;;;;46.12;4.37;99489.91;5095243;28;20343;-61
2023/04/25 06:44:15;;;;;;;7.55;4.72;;;;;;;46.21;4.43;99505.81;5095310;28;20039;-61
2023/04/25 06:46:41;;;;;;;7.03;4.90;;;;;;;46.23;4.09;99506.28;5095487;28;20453;-61
2023/04/25 06:49:06;;;;;;;7.93;4.55;;;;;;;46.56;4.08;99505.72;5095953;28;20032;-61
2023/04/25 06:51:32;;;;;;;11.95;5.90;;;;;;;46.94;3.97;99511.63;5095228;28;20213;-61
2023/04/25 06:53:57;;;;;;;10.65;5.90;;;;;;;46.85;3.80;99508.22;5095520;28;20043;-61
2023/04/25 06:56:23;;;;;;;12.30;6.55;;;;;;;46.75;3.97;99508.84;5095409;28;20374;-62
2023/04/25 06:58:49;;;;;;;14.15;6.40;;;;;;;47.25;4.14;99511.69;5095521;28;20070;-61
2023/04/25 07:01:15;;;;;;;13.32;6.60;;;;;;;47.53;4.24;99502.81;5094888;28;20020;-61
2023/04/25 07:03:40;;;;;;;12.70;5.35;;;;;;;47.28;3.64;99497.63;5094980;28;20127;-62
2023/04/25 07:06:06;;;;;;;9.95;5.10;;;;;;;47.50;3.78;99499.94;5094825;28;20032;-62
2023/04/25 07:08:32;;;;;;;9.73;5.40;;;;;;;47.70;3.93;99500.63;5095373;28;20035;-61
2023/04/25 07:10:57;;;;;;;16.98;5.80;;;;;;;47.76;4.00;99523.78;5077412;28;20016;-62
2023/04/25 07:13:23;;;;;;;9.27;5.95;;;;;;;48.05;3.26;99507.16;5076842;28;20024;-62
2023/04/25 07:15:48;;;;;;;14.43;6.15;;;;;;;47.94;3.86;99501.31;5094683;28;20024;-62
2023/04/25 07:18:15;;;;;;;9.90;5.95;;;;;;;47.67;3.92;99501.41;5094869;28;20131;-63
2023/04/25 07:20:40;;;;;;;14.45;7.05;;;;;;;48.12;3.61;99498.72;5094912;28;20028;-61
2023/04/25 07:23:06;;;;;;;14.07;6.60;;;;;;;47.86;3.65;99498.41;5094626;28;20506;-62
2023/04/25 07:25:32;;;;;;;14.60;7.07;;;;;;;48.22;3.54;99500.84;5094522;28;20040;-62
2023/04/25 07:27:57;;;;;;;10.90;6.72;;;;;;;48.32;3.59;99502.19;5094797;28;20397;-59
2023/04/25 07:30:23;;;;;;;13.13;6.53;;;;;;;48.17;3.50;99503.22;5092312;28;20103;-61
2023/04/25 07:32:49;;;;;;;9.00;5.97;;;;;;;48.56;3.03;99500.00;5088257;28;20032;-60
2023/04/25 07:35:16;;;;;;;9.85;5.50;;;;;;;48.98;3.02;99503.63;5090816;28;20024;-60
2023/04/25 07:37:41;;;;;;;14.02;5.32;;;;;;;49.53;2.61;99476.38;5093673;28;20027;-62
2023/04/25 07:40:09;;;;;;;11.27;5.60;;;;;;;49.68;3.21;99500.00;5093441;28;20040;-62
2023/04/25 07:42:35;;;;;;;11.30;6.50;;;;;;;49.78;2.91;99487.03;5094264;28;20051;-61
2023/04/25 07:45:01;;;;;;;10.93;5.28;;;;;;;49.70;2.99;99491.91;5059207;28;20040;-62
2023/04/25 07:47:27;;;;;;;13.55;5.32;;;;;;;49.15;3.37;99489.97;5093921;28;20032;-60
2023/04/25 07:49:52;;;;;;;12.13;5.72;;;;;;;48.32;3.79;99496.50;5094440;28;20030;-62
2023/04/25 07:52:18;;;;;;;11.88;5.53;;;;;;;46.89;4.29;99503.47;5094105;28;20032;-61
2023/04/25 07:54:43;;;;;;;15.85;5.60;;;;;;;45.96;4.42;99489.16;5093267;28;20111;-61
2023/04/25 07:57:09;;;;;;;13.85;6.07;;;;;;;45.12;5.12;99487.28;5094234;28;20028;-61
2023/04/25 07:59:34;;;;;;;12.90;5.80;;;;;;;43.89;5.89;99492.47;5093764;28;20032;-61
2023/04/25 08:02:01;;;;;;;9.20;5.20;;;;;;;42.63;6.43;99495.69;5074958;28;20032;-60
2023/04/25 08:04:26;;;;;;;13.30;5.32;;;;;;;41.54;6.95;99476.78;5091898;28;20115;-61
2023/04/25 08:06:53;;;;;;;15.68;5.07;;;;;;;40.69;7.62;99482.16;5092306;28;20099;-63
2023/04/25 08:09:19;;;;;;;9.85;4.85;;;;;;;39.46;7.97;99491.44;5093070;28;20024;-62
2023/04/25 08:11:45;;;;;;;15.70;5.97;;;;;;;37.26;9.63;99493.56;5075358;28;20032;-62
2023/04/25 08:14:11;;;;;;;13.50;5.18;;;;;;;34.69;11.31;99474.84;5093443;28;20032;-62
2023/04/25 08:16:37;;;;;;;15.98;5.82;;;;;;;32.53;12.92;99490.41;5093191;28;20101;-63
2023/04/25 08:19:02;;;;;;;13.70;5.40;;;;;;;30.90;14.49;99494.91;5093359;28;20447;-63
2023/04/25 08:21:28;;;;;;;15.88;5.60;;;;;;;29.72;15.67;99487.25;5093697;28;20063;-61
2023/04/25 08:23:54;;;;;;;19.50;4.93;;;;;;;28.60;16.47;99466.19;5075322;28;20355;-63
2023/04/25 08:26:20;;;;;;;16.65;4.95;;;;;;;27.65;18.03;99508.88;5093570;28;20024;-61
2023/04/25 08:28:46;;;;;;;15.57;5.20;;;;;;;26.48;19.09;99502.13;5092976;28;20036;-61
2023/04/25 08:31:11;;;;;;;15.68;5.20;;;;;;;26.14;19.52;99496.31;5092565;28;20028;-61
2023/04/25 08:33:37;;;;;;;14.18;4.82;;;;;;;25.85;20.07;99479.69;5092987;28;20035;-61
2023/04/25 08:36:03;;;;;;;20.10;5.47;;;;;;;25.62;20.36;99484.00;5092746;28;20095;-63
2023/04/25 08:38:28;;;;;;;13.55;5.50;;;;;;;25.20;20.37;99514.00;5093383;28;20039;-60
2023/04/25 08:40:55;;;;;;;15.00;4.50;;;;;;;24.52;21.00;99481.78;5092782;28;20119;-61
2023/04/25 08:43:21;;;;;;;9.85;5.03;;;;;;;24.23;21.57;99481.41;5093098;28;20036;-61
2023/04/25 08:45:47;;;;;;;12.23;4.72;;;;;;;24.13;21.14;99483.81;5092938;28;20110;-62
2023/04/25 08:48:14;;;;;;;13.15;5.03;;;;;;;24.10;21.34;99484.22;5092303;28;20039;-61
2023/04/25 08:50:54;;;;;;;8.27;4.60;;;;;;;24.27;20.20;99475.47;5092845;28;20035;-60
2023/04/25 08:53:27;;;;;;;8.13;4.55;;;;;;;24.33;20.51;99471.84;5092751;28;20070;-62
2023/04/25 08:55:55;;;;;;;11.73;4.68;;;;;;;24.30;20.85;99480.50;5092356;28;20270;-62
2023/04/25 08:58:21;;;;;;;7.93;4.20;;;;;;;24.04;21.17;99468.72;5092641;28;20058;-61
2023/04/25 09:00:48;;;;;;;13.02;4.28;;;;;;;24.01;20.82;99475.47;5092791;28;20426;-61
2023/04/25 09:03:15;;;;;;;11.98;3.70;;;;;;;23.89;21.22;99472.59;5074109;28;20051;-62
2023/04/25 09:05:41;;;;;;;12.73;4.40;;;;;;;23.78;21.04;99460.47;5071163;28;20119;-61
2023/04/25 09:08:06;;;;;;;6.47;3.90;;;;;;;23.92;20.94;99454.88;5090319;28;20028;-60
2023/04/25 09:10:33;;;;;;;7.05;3.70;;;;;;;24.07;20.82;99462.78;5092001;28;20039;-62
2023/04/25 09:13:12;;;;;;;8.20;3.88;;;;;;;24.35;19.90;99461.50;5086370;28;20070;-59
2023/04/25 09:15:48;;;;;;;7.78;3.95;;;;;;;23.84;20.60;99458.72;5088866;28;20039;-58
2023/04/25 09:18:22;;;;;;;7.88;3.85;;;;;;;23.59;20.34;99451.28;5091035;28;20071;-60
2023/04/25 09:20:47;;;;;;;10.40;4.30;;;;;;;23.25;20.76;99445.16;5092145;28;20056;-57
2023/04/25 09:23:14;;;;;;;7.22;3.92;;;;;;;23.04;21.15;99455.28;5092357;28;20024;-53
2023/04/25 09:25:40;;;;;;;10.82;4.13;;;;;;;22.62;21.31;99446.56;5092887;28;20036;-60
2023/04/25 09:28:06;;;;;;;9.88;4.32;;;;;;;22.32;22.31;99457.91;5089771;28;20408;-60
2023/04/25 09:30:34;;;;;;;13.48;4.53;;;;;;;22.15;22.75;99466.50;5092925;28;20036;-58
2023/04/25 09:33:06;;;;;;;14.55;3.85;;;;;;;22.22;22.54;99453.72;5092098;28;20020;-60
2023/04/25 09:35:45;;;;;;;12.65;4.10;;;;;;;22.32;23.14;99449.72;5090441;28;20020;-62
2023/04/25 09:38:13;;;;;;;7.75;4.80;;;;;;;22.26;23.14;99445.13;5075633;28;20032;-62
2023/04/25 09:40:43;;;;;;;8.00;5.13;;;;;;;21.86;23.90;99411.34;5091629;28;20142;-62
2023/04/25 09:43:20;;;;;;;10.73;5.75;;;;;;;21.80;24.23;99442.16;5091138;28;20476;-61
2023/04/25 09:45:47;;;;;;;17.83;5.60;;;;;;;21.64;24.29;99449.66;5084146;28;20085;-62
2023/04/25 09:48:20;;;;;;;10.77;6.10;;;;;;;21.33;24.69;99431.94;5095106;28;20032;-62
2023/04/25 09:51:03;;;;;;;11.98;6.30;;;;;;;21.47;24.12;99434.72;5096956;28;20044;-60
2023/04/25 09:53:29;;;;;;;11.55;5.35;;;;;;;21.53;24.44;99455.69;5096777;28;20171;-61
2023/04/25 09:55:56;;;;;;;9.27;6.13;;;;;;;21.86;24.27;99432.31;5096498;28;20127;-59
2023/04/25 09:58:24;;;;;;;11.65;6.70;;;;;;;21.92;23.81;99399.59;5096647;28;20148;-61
2023/04/25 10:00:54;;;;;;;13.40;6.30;;;;;;;22.15;23.95;99427.50;5096633;28;20020;-61
2023/04/25 10:03:23;;;;;;;9.70;5.63;;;;;;;22.15;22.70;99431.06;5096583;28;20031;-61
2023/04/25 10:05:52;;;;;;;11.45;6.13;;;;;;;21.89;23.31;99429.19;5096298;28;20075;-62
2023/04/25 10:08:19;;;;;;;11.65;6.78;;;;;;;21.79;23.99;99433.13;5096271;28;20031;-62
2023/04/25 10:10:48;;;;;;;10.50;6.70;;;;;;;21.77;24.46;99418.06;5096613;28;20071;-60
2023/04/25 10:13:14;;;;;;;9.60;6.60;;;;;;;21.91;24.33;99414.28;5096172;28;20520;-63
2023/04/25 10:15:41;;;;;;;12.30;6.45;;;;;;;22.32;24.03;99417.00;5096385;28;20093;-61
2023/04/25 10:18:07;;;;;;;15.95;6.70;;;;;;;22.74;23.33;99416.75;5096696;28;20036;-61
2023/04/25 10:20:33;;;;;;;13.82;6.63;;;;;;;22.91;22.92;99398.03;5096440;28;20439;-60
2023/04/25 10:23:08;;;;;;;14.95;6.57;;;;;;;23.17;22.66;99407.16;5096033;28;20085;-63
2023/04/25 10:25:34;;;;;;;10.32;5.65;;;;;;;23.22;22.51;99402.72;5096276;28;20473;-62
2023/04/25 10:28:01;;;;;;;10.85;5.80;;;;;;;23.03;22.71;99385.38;5078200;28;20039;-61
2023/04/25 10:30:27;;;;;;;12.13;5.65;;;;;;;22.59;23.27;99381.53;5096060;28;20096;-60
2023/04/25 10:32:55;;;;;;;11.75;5.22;;;;;;;22.28;23.50;99396.66;5095908;28;20031;-61
2023/04/25 10:35:28;;;;;;;10.25;4.40;;;;;;;21.98;23.58;99397.09;5095569;28;20031;-61
2023/04/25 10:38:03;;;;;;;9.73;4.35;;;;;;;21.91;23.48;99388.91;5095959;28;20024;-63
2023/04/25 10:40:29;;;;;;;13.60;4.13;;;;;;;21.88;23.51;99382.00;5095067;28;20059;-62
2023/04/25 10:42:55;;;;;;;5.88;3.80;;;;;;;21.91;22.83;99380.75;5094602;28;20051;-62
2023/04/25 10:45:22;;;;;;;9.60;3.42;;;;;;;21.82;23.16;99382.84;5076419;28;20104;-61
2023/04/25 10:47:48;;;;;;;6.53;3.95;;;;;;;21.78;23.07;99381.59;5094389;28;20027;-60
2023/04/25 10:50:16;;;;;;;6.78;3.25;;;;;;;21.72;22.59;99360.63;5094615;28;20032;-62
2023/04/25 10:52:41;;;;;;;5.32;3.15;;;;;;;21.83;22.29;99400.03;5059967;28;20039;-62
2023/04/25 10:55:08;;;;;;;3.25;2.80;;;;;;;21.73;21.78;99378.66;5094403;28;20024;-62
2023/04/25 10:57:37;;;;;;;4.95;3.00;;;;;;;21.85;21.67;99359.78;5093939;28;20047;-62
2023/04/25 11:00:12;;;;;;;5.97;3.38;;;;;;;21.88;22.63;99365.63;5076543;28;20124;-61
2023/04/25 11:02:46;;;;;;;7.35;3.65;;;;;;;21.98;22.74;99354.31;5094641;28;20084;-62
2023/04/25 11:05:34;;;;;;;6.22;3.65;;;;;;;22.02;22.57;99343.84;5094227;28;20119;-61
2023/04/25 11:08:00;;;;;;;7.45;3.60;;;;;;;22.13;22.91;99354.09;5093991;28;20599;-61
2023/04/25 11:10:28;;;;;;;8.23;3.38;;;;;;;22.13;21.76;99350.56;5076289;28;20042;-61
2023/04/25 11:12:53;;;;;;;5.25;3.40;;;;;;;22.10;21.40;99353.69;5093994;28;20036;-60
2023/04/25 11:15:19;;;;;;;4.40;2.80;;;;;;;21.90;21.74;99341.75;5094093;28;20032;-61
2023/04/25 11:17:46;;;;;;;6.38;3.33;;;;;;;21.74;22.18;99345.72;5094081;28;20048;-63
2023/04/25 11:20:13;;;;;;;7.18;2.90;;;;;;;21.59;22.46;99337.72;5093700;28;20032;-61
2023/04/25 11:22:40;;;;;;;9.70;3.78;;;;;;;21.67;22.37;99314.94;5094257;28;20043;-61
2023/04/25 11:25:08;;;;;;;6.05;3.20;;;;;;;22.00;22.66;99324.97;5094013;28;20028;-62
2023/04/25 11:27:34;;;;;;;7.28;3.65;;;;;;;22.24;22.71;99319.91;5093987;28;20359;-61